sensor_id;sensor_type;location;lat;lon;timestamp;pressure;altitude;pressure_sealevel;temperature;humidity
53758;BME280;39674;59.860;30.672;2023-07-16T00:00:14;101233.44;;;15.50;100.00
53758;BME280;39674;59.860;30.672;2023-07-16T00:02:49;101231.06;;;15.46;100.00
53758;BME280;39674;59.860;30.672;2023-07-16T00:05:21;101231.06;;;15.46;100.00
53758;BME280;39674;59.860;30.672;2023-07-16T00:07:49;101215.06;;;15.33;100.00
53758;BME280;39674;59.860;30.672;2023-07-16T00:10:18;101219.97;;;15.39;100.00
53758;BME280;39674;59.860;30.672;2023-07-16T00:12:49;101176.59;;;15.10;100.00
53758;BME280;39674;59.860;30.672;2023-07-16T00:15:17;101146.03;;;14.88;100.00
53758;BME280;39674;59.860;30.672;2023-07-16T00:17:46;101224.16;;;15.29;100.00
53758;BME280;39674;59.860;30.672;2023-07-16T00:20:15;101204.97;;;15.09;100.00
53758;BME280;39674;59.860;30.672;2023-07-16T00:22:44;101182.88;;;14.94;100.00
53758;BME280;39674;59.860;30.672;2023-07-16T00:25:13;101224.75;;;15.19;100.00
53758;BME280;39674;59.860;30.672;2023-07-16T00:27:41;101220.38;;;15.18;100.00
53758;BME280;39674;59.860;30.672;2023-07-16T00:30:12;101217.91;;;15.15;100.00
53758;BME280;39674;59.860;30.672;2023-07-16T00:32:41;101214.88;;;15.07;100.00
53758;BME280;39674;59.860;30.672;2023-07-16T00:35:09;101218.09;;;15.12;100.00
53758;BME280;39674;59.860;30.672;2023-07-16T00:37:38;101180.50;;;14.89;100.00
53758;BME280;39674;59.860;30.672;2023-07-16T00:40:08;101227.22;;;15.08;100.00
53758;BME280;39674;59.860;30.672;2023-07-16T00:42:37;101232.75;;;15.05;100.00
53758;BME280;39674;59.860;30.672;2023-07-16T00:45:11;101215.44;;;14.98;100.00
53758;BME280;39674;59.860;30.672;2023-07-16T00:47:43;101228.84;;;14.96;100.00
53758;BME280;39674;59.860;30.672;2023-07-16T00:50:12;101222.31;;;14.87;100.00
53758;BME280;39674;59.860;30.672;2023-07-16T00:52:41;101238.91;;;14.91;100.00
53758;BME280;39674;59.860;30.672;2023-07-16T00:55:11;101145.09;;;14.29;100.00
53758;BME280;39674;59.860;30.672;2023-07-16T00:57:40;101239.38;;;14.83;100.00
53758;BME280;39674;59.860;30.672;2023-07-16T01:00:11;101244.03;;;14.80;100.00
53758;BME280;39674;59.860;30.672;2023-07-16T01:02:40;101234.63;;;14.74;100.00
53758;BME280;39674;59.860;30.672;2023-07-16T01:05:09;101244.41;;;14.73;100.00
53758;BME280;39674;59.860;30.672;2023-07-16T01:07:38;101209.47;;;14.49;100.00
53758;BME280;39674;59.860;30.672;2023-07-16T01:10:11;101247.16;;;14.72;100.00
53758;BME280;39674;59.860;30.672;2023-07-16T01:12:40;101245.63;;;14.68;100.00
53758;BME280;39674;59.860;30.672;2023-07-16T01:15:11;101238.59;;;14.67;100.00
53758;BME280;39674;59.860;30.672;2023-07-16T01:17:40;101182.81;;;14.36;100.00
53758;BME280;39674;59.860;30.672;2023-07-16T01:20:09;101234.91;;;14.69;100.00
53758;BME280;39674;59.860;30.672;2023-07-16T01:22:57;101230.06;;;14.76;100.00
53758;BME280;39674;59.860;30.672;2023-07-16T01:25:49;101231.00;;;14.75;100.00
53758;BME280;39674;59.860;30.672;2023-07-16T01:28:51;101221.41;;;14.72;100.00
53758;BME280;39674;59.860;30.672;2023-07-16T01:31:24;101225.47;;;14.64;100.00
53758;BME280;39674;59.860;30.672;2023-07-16T01:33:53;101184.00;;;14.31;100.00
53758;BME280;39674;59.860;30.672;2023-07-16T01:36:25;101231.41;;;14.53;100.00
53758;BME280;39674;59.860;30.672;2023-07-16T01:38:55;101100.75;;;13.71;100.00
53758;BME280;39674;59.860;30.672;2023-07-16T01:41:24;101217.56;;;14.48;100.00
53758;BME280;39674;59.860;30.672;2023-07-16T01:43:53;101221.81;;;14.50;100.00
53758;BME280;39674;59.860;30.672;2023-07-16T01:46:25;101220.88;;;14.51;100.00
53758;BME280;39674;59.860;30.672;2023-07-16T01:48:54;101221.81;;;14.50;100.00
53758;BME280;39674;59.860;30.672;2023-07-16T01:51:23;101222.03;;;14.47;100.00
53758;BME280;39674;59.860;30.672;2023-07-16T01:53:52;101218.75;;;14.42;100.00
53758;BME280;39674;59.860;30.672;2023-07-16T01:56:21;101226.66;;;14.43;100.00
53758;BME280;39674;59.860;30.672;2023-07-16T01:58:51;101203.56;;;14.29;100.00
53758;BME280;39674;59.860;30.672;2023-07-16T02:01:20;101223.44;;;14.38;100.00
53758;BME280;39674;59.860;30.672;2023-07-16T02:03:49;101217.44;;;14.35;100.00
53758;BME280;39674;59.860;30.672;2023-07-16T02:06:18;101200.88;;;14.15;100.00
53758;BME280;39674;59.860;30.672;2023-07-16T02:08:48;101228.59;;;14.25;100.00
53758;BME280;39674;59.860;30.672;2023-07-16T02:11:17;101228.75;;;14.22;100.00
53758;BME280;39674;59.860;30.672;2023-07-16T02:13:49;101237.72;;;14.21;100.00
53758;BME280;39674;59.860;30.672;2023-07-16T02:16:17;101191.50;;;13.93;100.00
53758;BME280;39674;59.860;30.672;2023-07-16T02:18:46;101192.22;;;13.81;100.00
53758;BME280;39674;59.860;30.672;2023-07-16T02:21:16;101247.34;;;14.08;100.00
53758;BME280;39674;59.860;30.672;2023-07-16T02:23:46;101247.34;;;14.08;100.00
53758;BME280;39674;59.860;30.672;2023-07-16T02:26:14;101243.75;;;14.09;100.00
53758;BME280;39674;59.860;30.672;2023-07-16T02:28:43;101245.06;;;14.16;100.00
53758;BME280;39674;59.860;30.672;2023-07-16T02:31:11;101243.19;;;14.18;100.00
53758;BME280;39674;59.860;30.672;2023-07-16T02:33:41;101244.72;;;14.22;100.00
53758;BME280;39674;59.860;30.672;2023-07-16T02:36:10;101245.06;;;14.16;100.00
53758;BME280;39674;59.860;30.672;2023-07-16T02:38:39;101247.81;;;14.15;100.00
53758;BME280;39674;59.860;30.672;2023-07-16T02:41:08;101261.16;;;14.29;100.00
53758;BME280;39674;59.860;30.672;2023-07-16T02:43:37;101194.56;;;14.02;100.00
53758;BME280;39674;59.860;30.672;2023-07-16T02:46:06;101188.38;;;14.01;100.00
53758;BME280;39674;59.860;30.672;2023-07-16T02:48:34;101253.41;;;14.40;100.00
53758;BME280;39674;59.860;30.672;2023-07-16T02:51:03;101225.84;;;14.27;100.00
53758;BME280;39674;59.860;30.672;2023-07-16T02:53:32;101276.53;;;14.54;100.00
53758;BME280;39674;59.860;30.672;2023-07-16T02:56:02;101273.50;;;14.60;100.00
53758;BME280;39674;59.860;30.672;2023-07-16T02:58:31;101273.91;;;14.69;100.00
53758;BME280;39674;59.860;30.672;2023-07-16T03:01:01;101278.84;;;14.75;100.00
53758;BME280;39674;59.860;30.672;2023-07-16T03:03:30;101268.44;;;14.86;100.00
53758;BME280;39674;59.860;30.672;2023-07-16T03:05:59;101265.50;;;14.91;100.00
53758;BME280;39674;59.860;30.672;2023-07-16T03:08:28;101230.81;;;14.78;100.00
53758;BME280;39674;59.860;30.672;2023-07-16T03:10:58;101279.00;;;15.31;100.00
53758;BME280;39674;59.860;30.672;2023-07-16T03:13:28;101289.34;;;15.50;100.00
53758;BME280;39674;59.860;30.672;2023-07-16T03:15:57;101280.75;;;15.60;100.00
53758;BME280;39674;59.860;30.672;2023-07-16T03:18:28;101287.69;;;15.77;100.00
53758;BME280;39674;59.860;30.672;2023-07-16T03:20:57;101279.03;;;15.87;100.00
53758;BME280;39674;59.860;30.672;2023-07-16T03:23:27;101291.47;;;16.01;100.00
53758;BME280;39674;59.860;30.672;2023-07-16T03:25:56;101288.84;;;16.14;100.00
53758;BME280;39674;59.860;30.672;2023-07-16T03:28:24;101283.44;;;16.29;100.00
53758;BME280;39674;59.860;30.672;2023-07-16T03:30:55;101275.59;;;16.40;100.00
53758;BME280;39674;59.860;30.672;2023-07-16T03:33:24;101279.03;;;16.55;100.00
53758;BME280;39674;59.860;30.672;2023-07-16T03:35:53;101289.50;;;16.71;100.00
53758;BME280;39674;59.860;30.672;2023-07-16T03:38:22;101282.06;;;16.76;100.00
53758;BME280;39674;59.860;30.672;2023-07-16T03:40:52;101283.44;;;16.82;100.00
53758;BME280;39674;59.860;30.672;2023-07-16T03:43:21;101242.47;;;16.70;100.00
53758;BME280;39674;59.860;30.672;2023-07-16T03:45:51;101276.97;;;16.99;100.00
53758;BME280;39674;59.860;30.672;2023-07-16T03:48:22;101291.03;;;17.14;100.00
53758;BME280;39674;59.860;30.672;2023-07-16T03:50:51;101281.88;;;17.18;100.00
53758;BME280;39674;59.860;30.672;2023-07-16T03:53:21;101284.84;;;17.26;100.00
53758;BME280;39674;59.860;30.672;2023-07-16T03:55:50;101265.63;;;17.21;100.00
53758;BME280;39674;59.860;30.672;2023-07-16T03:58:20;101226.59;;;17.07;100.00
53758;BME280;39674;59.860;30.672;2023-07-16T04:00:50;101290.47;;;17.47;100.00
53758;BME280;39674;59.860;30.672;2023-07-16T04:03:19;101280.53;;;17.49;100.00
53758;BME280;39674;59.860;30.672;2023-07-16T04:05:49;101299.31;;;17.61;100.00
53758;BME280;39674;59.860;30.672;2023-07-16T04:08:18;101255.66;;;17.49;100.00
53758;BME280;39674;59.860;30.672;2023-07-16T04:10:46;101291.59;;;17.69;100.00
53758;BME280;39674;59.860;30.672;2023-07-16T04:13:16;101220.69;;;17.28;100.00
53758;BME280;39674;59.860;30.672;2023-07-16T04:15:45;101296.03;;;17.81;100.00
53758;BME280;39674;59.860;30.672;2023-07-16T04:18:14;101262.66;;;17.63;100.00
53758;BME280;39674;59.860;30.672;2023-07-16T04:20:43;101203.13;;;17.37;100.00
53758;BME280;39674;59.860;30.672;2023-07-16T04:23:13;101293.75;;;18.01;100.00
53758;BME280;39674;59.860;30.672;2023-07-16T04:25:42;101295.97;;;18.07;100.00
53758;BME280;39674;59.860;30.672;2023-07-16T04:28:12;101299.44;;;18.21;100.00
53758;BME280;39674;59.860;30.672;2023-07-16T04:30:41;101303.28;;;18.30;100.00
53758;BME280;39674;59.860;30.672;2023-07-16T04:33:10;101237.63;;;18.01;100.00
53758;BME280;39674;59.860;30.672;2023-07-16T04:35:39;101304.09;;;18.54;100.00
53758;BME280;39674;59.860;30.672;2023-07-16T04:38:08;101268.91;;;18.48;100.00
53758;BME280;39674;59.860;30.672;2023-07-16T04:40:38;101291.84;;;18.74;100.00
53758;BME280;39674;59.860;30.672;2023-07-16T04:43:06;101303.47;;;18.98;100.00
53758;BME280;39674;59.860;30.672;2023-07-16T04:45:38;101283.66;;;19.00;100.00
53758;BME280;39674;59.860;30.672;2023-07-16T04:48:06;101300.09;;;19.18;99.49
53758;BME280;39674;59.860;30.672;2023-07-16T04:50:36;101304.13;;;19.35;100.00
53758;BME280;39674;59.860;30.672;2023-07-16T04:53:07;101305.34;;;19.43;100.00
53758;BME280;39674;59.860;30.672;2023-07-16T04:55:38;101256.41;;;19.29;97.88
53758;BME280;39674;59.860;30.672;2023-07-16T04:58:07;101307.72;;;19.80;97.26
53758;BME280;39674;59.860;30.672;2023-07-16T05:00:35;101307.13;;;19.99;98.94
53758;BME280;39674;59.860;30.672;2023-07-16T05:03:04;101317.78;;;20.10;95.75
53758;BME280;39674;59.860;30.672;2023-07-16T05:05:33;101308.50;;;20.26;95.39
53758;BME280;39674;59.860;30.672;2023-07-16T05:08:02;101263.81;;;20.03;94.88
53758;BME280;39674;59.860;30.672;2023-07-16T05:10:32;101313.44;;;20.42;93.70
53758;BME280;39674;59.860;30.672;2023-07-16T05:13:03;101314.41;;;20.62;94.04
53758;BME280;39674;59.860;30.672;2023-07-16T05:15:32;101307.41;;;20.71;92.40
53758;BME280;39674;59.860;30.672;2023-07-16T05:18:01;101313.47;;;20.84;90.80
53758;BME280;39674;59.860;30.672;2023-07-16T05:20:30;101299.41;;;21.02;91.69
53758;BME280;39674;59.860;30.672;2023-07-16T05:22:58;101273.75;;;21.09;90.16
53758;BME280;39674;59.860;30.672;2023-07-16T05:25:29;101311.19;;;21.31;87.88
53758;BME280;39674;59.860;30.672;2023-07-16T05:27:59;101277.59;;;21.16;88.77
53758;BME280;39674;59.860;30.672;2023-07-16T05:30:30;101312.34;;;21.39;88.71
53758;BME280;39674;59.860;30.672;2023-07-16T05:32:59;101264.50;;;21.23;88.67
53758;BME280;39674;59.860;30.672;2023-07-16T05:35:28;101280.97;;;21.49;86.17
53758;BME280;39674;59.860;30.672;2023-07-16T05:37:56;101278.50;;;21.67;84.97
53758;BME280;39674;59.860;30.672;2023-07-16T05:40:27;101310.28;;;22.03;84.63
53758;BME280;39674;59.860;30.672;2023-07-16T05:42:59;101326.69;;;22.29;82.93
53758;BME280;39674;59.860;30.672;2023-07-16T05:45:33;101321.88;;;22.33;82.81
53758;BME280;39674;59.860;30.672;2023-07-16T05:48:03;101324.03;;;22.39;81.72
53758;BME280;39674;59.860;30.672;2023-07-16T05:50:32;101250.22;;;22.12;79.71
53758;BME280;39674;59.860;30.672;2023-07-16T05:53:01;101333.34;;;22.94;79.86
53758;BME280;39674;59.860;30.672;2023-07-16T05:55:30;101331.19;;;23.07;77.18
53758;BME280;39674;59.860;30.672;2023-07-16T05:58:01;101334.25;;;23.32;79.07
53758;BME280;39674;59.860;30.672;2023-07-16T06:00:29;101334.00;;;23.25;77.04
53758;BME280;39674;59.860;30.672;2023-07-16T06:03:01;101325.81;;;23.07;77.99
53758;BME280;39674;59.860;30.672;2023-07-16T06:05:33;101330.06;;;23.10;78.63
53758;BME280;39674;59.860;30.672;2023-07-16T06:08:04;101334.81;;;23.35;77.33
53758;BME280;39674;59.860;30.672;2023-07-16T06:10:42;101292.03;;;23.22;75.93
53758;BME280;39674;59.860;30.672;2023-07-16T06:13:14;101309.19;;;23.49;74.71
53758;BME280;39674;59.860;30.672;2023-07-16T06:15:46;101334.19;;;23.79;74.06
53758;BME280;39674;59.860;30.672;2023-07-16T06:18:20;101316.69;;;23.83;74.52
53758;BME280;39674;59.860;30.672;2023-07-16T06:20:49;101330.66;;;24.25;72.13
53758;BME280;39674;59.860;30.672;2023-07-16T06:23:20;101338.22;;;24.39;71.97
53758;BME280;39674;59.860;30.672;2023-07-16T06:25:56;101326.78;;;24.45;70.18
53758;BME280;39674;59.860;30.672;2023-07-16T06:28:25;101281.53;;;24.21;69.22
53758;BME280;39674;59.860;30.672;2023-07-16T06:30:53;101325.09;;;24.44;71.88
53758;BME280;39674;59.860;30.672;2023-07-16T06:33:26;101338.03;;;24.77;69.97
53758;BME280;39674;59.860;30.672;2023-07-16T06:35:58;101294.69;;;24.42;68.80
53758;BME280;39674;59.860;30.672;2023-07-16T06:38:30;101310.59;;;24.45;69.85
53758;BME280;39674;59.860;30.672;2023-07-16T06:40:59;101282.50;;;24.02;68.34
53758;BME280;39674;59.860;30.672;2023-07-16T06:43:28;101342.69;;;24.30;69.68
53758;BME280;39674;59.860;30.672;2023-07-16T06:46:03;101296.53;;;23.87;69.16
53758;BME280;39674;59.860;30.672;2023-07-16T06:48:38;101304.19;;;23.82;66.47
53758;BME280;39674;59.860;30.672;2023-07-16T06:51:08;101245.78;;;23.73;66.84
53758;BME280;39674;59.860;30.672;2023-07-16T06:53:38;101260.44;;;23.88;65.40
53758;BME280;39674;59.860;30.672;2023-07-16T06:56:08;101344.66;;;24.82;64.84
53758;BME280;39674;59.860;30.672;2023-07-16T06:58:37;101311.97;;;24.94;64.32
53758;BME280;39674;59.860;30.672;2023-07-16T07:01:08;101255.34;;;24.84;64.21
53758;BME280;39674;59.860;30.672;2023-07-16T07:03:41;101259.16;;;24.73;60.87
53758;BME280;39674;59.860;30.672;2023-07-16T07:06:16;101339.63;;;25.40;62.00
53758;BME280;39674;59.860;30.672;2023-07-16T07:08:46;101345.78;;;25.24;61.86
53758;BME280;39674;59.860;30.672;2023-07-16T07:11:20;101245.69;;;25.08;62.95
53758;BME280;39674;59.860;30.672;2023-07-16T07:13:52;101338.88;;;26.07;61.83
53758;BME280;39674;59.860;30.672;2023-07-16T07:16:33;101346.50;;;26.20;60.12
53758;BME280;39674;59.860;30.672;2023-07-16T07:19:16;101342.97;;;26.36;57.59
53758;BME280;39674;59.860;30.672;2023-07-16T07:21:44;101305.06;;;26.20;55.81
53758;BME280;39674;59.860;30.672;2023-07-16T07:24:18;101307.25;;;26.16;55.88
53758;BME280;39674;59.860;30.672;2023-07-16T07:26:51;101340.00;;;25.97;55.21
53758;BME280;39674;59.860;30.672;2023-07-16T07:29:28;101321.84;;;25.72;57.63
53758;BME280;39674;59.860;30.672;2023-07-16T07:31:57;101326.50;;;25.54;57.54
53758;BME280;39674;59.860;30.672;2023-07-16T07:34:32;101335.94;;;25.92;61.01
53758;BME280;39674;59.860;30.672;2023-07-16T07:37:01;101334.09;;;26.01;58.47
53758;BME280;39674;59.860;30.672;2023-07-16T07:39:30;101325.06;;;26.35;58.85
53758;BME280;39674;59.860;30.672;2023-07-16T07:42:00;101261.56;;;26.30;57.82
53758;BME280;39674;59.860;30.672;2023-07-16T07:44:30;101342.28;;;27.09;55.90
53758;BME280;39674;59.860;30.672;2023-07-16T07:47:00;101346.28;;;27.37;56.56
53758;BME280;39674;59.860;30.672;2023-07-16T07:49:31;101338.75;;;27.64;54.79
53758;BME280;39674;59.860;30.672;2023-07-16T07:52:03;101337.72;;;27.65;55.00
53758;BME280;39674;59.860;30.672;2023-07-16T07:54:36;101312.09;;;27.20;53.61
53758;BME280;39674;59.860;30.672;2023-07-16T07:57:05;101284.03;;;26.96;52.71
53758;BME280;39674;59.860;30.672;2023-07-16T07:59:35;101294.44;;;27.24;53.12
53758;BME280;39674;59.860;30.672;2023-07-16T08:02:07;101291.69;;;27.41;52.69
53758;BME280;39674;59.860;30.672;2023-07-16T08:04:40;101332.13;;;27.98;52.86
53758;BME280;39674;59.860;30.672;2023-07-16T08:07:15;101299.84;;;28.03;50.48
53758;BME280;39674;59.860;30.672;2023-07-16T08:09:45;101341.19;;;28.60;49.25
53758;BME280;39674;59.860;30.672;2023-07-16T08:12:14;101305.56;;;28.55;49.21
53758;BME280;39674;59.860;30.672;2023-07-16T08:14:44;101345.50;;;28.93;46.87
53758;BME280;39674;59.860;30.672;2023-07-16T08:17:23;101335.59;;;29.15;47.13
53758;BME280;39674;59.860;30.672;2023-07-16T08:19:54;101294.31;;;29.11;46.43
53758;BME280;39674;59.860;30.672;2023-07-16T08:22:23;101330.41;;;29.50;46.99
53758;BME280;39674;59.860;30.672;2023-07-16T08:24:52;101272.47;;;28.75;44.79
53758;BME280;39674;59.860;30.672;2023-07-16T08:27:32;101282.59;;;28.81;46.65
53758;BME280;39674;59.860;30.672;2023-07-16T08:30:06;101299.38;;;29.00;43.06
53758;BME280;39674;59.860;30.672;2023-07-16T08:32:41;101289.44;;;29.37;43.34
53758;BME280;39674;59.860;30.672;2023-07-16T08:35:19;101256.63;;;29.38;41.66
53758;BME280;39674;59.860;30.672;2023-07-16T08:37:50;101233.22;;;28.54;39.34
53758;BME280;39674;59.860;30.672;2023-07-16T08:40:22;101280.59;;;28.37;39.80
53758;BME280;39674;59.860;30.672;2023-07-16T08:42:51;101307.50;;;28.46;40.60
53758;BME280;39674;59.860;30.672;2023-07-16T08:45:24;101310.44;;;28.83;41.58
53758;BME280;39674;59.860;30.672;2023-07-16T08:47:54;101311.47;;;29.12;40.34
53758;BME280;39674;59.860;30.672;2023-07-16T08:50:27;101274.53;;;29.33;39.99
53758;BME280;39674;59.860;30.672;2023-07-16T08:52:59;101298.72;;;29.94;38.49
53758;BME280;39674;59.860;30.672;2023-07-16T08:55:29;101253.44;;;29.20;37.22
53758;BME280;39674;59.860;30.672;2023-07-16T08:57:58;101297.53;;;29.30;38.71
53758;BME280;39674;59.860;30.672;2023-07-16T09:00:28;101292.53;;;29.49;38.89
53758;BME280;39674;59.860;30.672;2023-07-16T09:03:02;101281.88;;;29.69;38.23
53758;BME280;39674;59.860;30.672;2023-07-16T09:05:35;101232.91;;;29.90;38.36
53758;BME280;39674;59.860;30.672;2023-07-16T09:08:07;101284.69;;;30.62;37.08
53758;BME280;39674;59.860;30.672;2023-07-16T09:10:36;101267.97;;;30.72;36.98
53758;BME280;39674;59.860;30.672;2023-07-16T09:13:06;101275.44;;;30.92;37.52
53758;BME280;39674;59.860;30.672;2023-07-16T09:15:35;101236.97;;;30.73;34.52
53758;BME280;39674;59.860;30.672;2023-07-16T09:18:06;101249.53;;;30.74;34.01
53758;BME280;39674;59.860;30.672;2023-07-16T09:20:41;101240.50;;;29.95;33.23
53758;BME280;39674;59.860;30.672;2023-07-16T09:23:21;101256.16;;;29.35;33.34
53758;BME280;39674;59.860;30.672;2023-07-16T09:25:53;101211.69;;;28.97;35.11
53758;BME280;39674;59.860;30.672;2023-07-16T09:28:22;101277.06;;;29.71;35.12
53758;BME280;39674;59.860;30.672;2023-07-16T09:30:51;101272.44;;;30.08;34.87
53758;BME280;39674;59.860;30.672;2023-07-16T09:33:21;101274.78;;;30.11;33.67
53758;BME280;39674;59.860;30.672;2023-07-16T09:35:54;101239.88;;;30.21;33.59
53758;BME280;39674;59.860;30.672;2023-07-16T09:38:23;101265.41;;;30.64;34.29
53758;BME280;39674;59.860;30.672;2023-07-16T09:40:53;101201.84;;;30.35;32.90
53758;BME280;39674;59.860;30.672;2023-07-16T09:43:26;101276.88;;;30.87;32.73
53758;BME280;39674;59.860;30.672;2023-07-16T09:45:54;101237.34;;;30.70;31.53
53758;BME280;39674;59.860;30.672;2023-07-16T09:48:29;101272.47;;;31.21;31.78
53758;BME280;39674;59.860;30.672;2023-07-16T09:51:11;101252.28;;;31.09;31.55
53758;BME280;39674;59.860;30.672;2023-07-16T09:53:42;101261.41;;;31.36;32.52
53758;BME280;39674;59.860;30.672;2023-07-16T09:56:13;101233.50;;;30.93;30.91
53758;BME280;39674;59.860;30.672;2023-07-16T09:58:45;101266.91;;;31.01;30.75
53758;BME280;39674;59.860;30.672;2023-07-16T10:01:14;101209.50;;;30.46;30.81
53758;BME280;39674;59.860;30.672;2023-07-16T10:03:49;101192.00;;;30.34;33.68
53758;BME280;39674;59.860;30.672;2023-07-16T10:06:21;101240.81;;;30.85;30.94
53758;BME280;39674;59.860;30.672;2023-07-16T10:08:50;101179.50;;;30.81;33.12
53758;BME280;39674;59.860;30.672;2023-07-16T10:11:19;101259.47;;;31.24;30.32
53758;BME280;39674;59.860;30.672;2023-07-16T10:13:52;101254.94;;;30.17;30.77
53758;BME280;39674;59.860;30.672;2023-07-16T10:16:56;101166.50;;;29.11;32.34
53758;BME280;39674;59.860;30.672;2023-07-16T10:19:58;101203.19;;;29.52;34.42
53758;BME280;39674;59.860;30.672;2023-07-16T10:22:37;101253.47;;;30.43;31.28
53758;BME280;39674;59.860;30.672;2023-07-16T10:25:24;101255.88;;;30.81;31.40
53758;BME280;39674;59.860;30.672;2023-07-16T10:27:54;101249.28;;;31.04;29.14
53758;BME280;39674;59.860;30.672;2023-07-16T10:30:23;101185.03;;;30.95;29.82
53758;BME280;39674;59.860;30.672;2023-07-16T10:32:53;101252.44;;;31.56;30.30
53758;BME280;39674;59.860;30.672;2023-07-16T10:35:25;101251.69;;;31.69;29.20
53758;BME280;39674;59.860;30.672;2023-07-16T10:37:56;101247.53;;;32.13;30.12
53758;BME280;39674;59.860;30.672;2023-07-16T10:40:39;101149.88;;;31.13;27.66
53758;BME280;39674;59.860;30.672;2023-07-16T10:43:14;101250.78;;;31.62;29.01
53758;BME280;39674;59.860;30.672;2023-07-16T10:45:44;101245.34;;;31.62;30.36
53758;BME280;39674;59.860;30.672;2023-07-16T10:48:17;101250.00;;;31.68;28.46
53758;BME280;39674;59.860;30.672;2023-07-16T10:50:53;101248.78;;;31.77;27.64
53758;BME280;39674;59.860;30.672;2023-07-16T10:53:24;101238.69;;;31.91;27.42
53758;BME280;39674;59.860;30.672;2023-07-16T10:55:58;101146.13;;;31.14;29.83
53758;BME280;39674;59.860;30.672;2023-07-16T10:58:28;101168.53;;;31.85;28.51
53758;BME280;39674;59.860;30.672;2023-07-16T11:00:57;101168.94;;;31.82;26.89
53758;BME280;39674;59.860;30.672;2023-07-16T11:03:27;101159.47;;;31.84;27.66
53758;BME280;39674;59.860;30.672;2023-07-16T11:05:58;101227.78;;;32.38;28.91
53758;BME280;39674;59.860;30.672;2023-07-16T11:08:37;101227.78;;;32.38;27.16
53758;BME280;39674;59.860;30.672;2023-07-16T11:11:06;101223.16;;;32.19;26.77
53758;BME280;39674;59.860;30.672;2023-07-16T11:13:46;101135.94;;;31.57;27.37
53758;BME280;39674;59.860;30.672;2023-07-16T11:16:17;101213.06;;;32.06;27.35
53758;BME280;39674;59.860;30.672;2023-07-16T11:18:53;101196.69;;;32.26;31.94
53758;BME280;39674;59.860;30.672;2023-07-16T11:21:24;101202.75;;;32.55;28.77
53758;BME280;39674;59.860;30.672;2023-07-16T11:24:07;101189.94;;;32.48;29.00
53758;BME280;39674;59.860;30.672;2023-07-16T11:26:37;101199.19;;;32.07;29.93
53758;BME280;39674;59.860;30.672;2023-07-16T11:29:18;101182.41;;;32.30;28.76
53758;BME280;39674;59.860;30.672;2023-07-16T11:31:50;101195.44;;;32.35;27.06
53758;BME280;39674;59.860;30.672;2023-07-16T11:34:25;101142.03;;;32.26;27.96
53758;BME280;39674;59.860;30.672;2023-07-16T11:37:07;101187.34;;;32.80;27.97
53758;BME280;39674;59.860;30.672;2023-07-16T11:39:57;101133.00;;;32.05;26.49
53758;BME280;39674;59.860;30.672;2023-07-16T11:42:41;101158.84;;;31.69;27.04
53758;BME280;39674;59.860;30.672;2023-07-16T11:45:22;101094.44;;;30.93;26.66
53758;BME280;39674;59.860;30.672;2023-07-16T11:48:02;101147.22;;;30.78;27.18
53758;BME280;39674;59.860;30.672;2023-07-16T11:50:54;101145.34;;;30.44;27.64
53758;BME280;39674;59.860;30.672;2023-07-16T11:53:26;101148.94;;;30.22;28.77
53758;BME280;39674;59.860;30.672;2023-07-16T11:56:23;101089.97;;;29.80;30.02
53758;BME280;39674;59.860;30.672;2023-07-16T11:59:02;101175.09;;;30.45;32.55
53758;BME280;39674;59.860;30.672;2023-07-16T12:01:41;101124.09;;;29.82;29.17
53758;BME280;39674;59.860;30.672;2023-07-16T12:04:20;101170.16;;;29.99;28.33
53758;BME280;39674;59.860;30.672;2023-07-16T12:06:50;101131.75;;;29.28;27.77
53758;BME280;39674;59.860;30.672;2023-07-16T12:09:58;101075.25;;;28.87;29.22
53758;BME280;39674;59.860;30.672;2023-07-16T12:12:38;101081.25;;;28.67;33.92
53758;BME280;39674;59.860;30.672;2023-07-16T12:15:08;101068.53;;;28.53;31.28
53758;BME280;39674;59.860;30.672;2023-07-16T12:17:45;101168.66;;;29.31;33.24
53758;BME280;39674;59.860;30.672;2023-07-16T12:20:18;101144.13;;;28.94;30.28
53758;BME280;39674;59.860;30.672;2023-07-16T12:22:52;101078.47;;;28.46;30.34
53758;BME280;39674;59.860;30.672;2023-07-16T12:25:33;101062.91;;;28.40;32.24
53758;BME280;39674;59.860;30.672;2023-07-16T12:28:12;101152.13;;;28.81;31.46
53758;BME280;39674;59.860;30.672;2023-07-16T12:30:47;101143.09;;;28.36;30.23
53758;BME280;39674;59.860;30.672;2023-07-16T12:33:19;101086.34;;;27.73;31.22
53758;BME280;39674;59.860;30.672;2023-07-16T12:35:50;101149.44;;;28.13;32.69
53758;BME280;39674;59.860;30.672;2023-07-16T12:38:20;101140.94;;;28.16;32.51
53758;BME280;39674;59.860;30.672;2023-07-16T12:40:52;101105.34;;;27.73;31.06
53758;BME280;39674;59.860;30.672;2023-07-16T12:43:25;101053.38;;;27.37;32.73
53758;BME280;39674;59.860;30.672;2023-07-16T12:45:54;101151.09;;;27.76;30.16
53758;BME280;39674;59.860;30.672;2023-07-16T12:48:24;101133.03;;;27.45;30.51
53758;BME280;39674;59.860;30.672;2023-07-16T12:50:52;101144.88;;;27.44;31.65
53758;BME280;39674;59.860;30.672;2023-07-16T12:53:22;101106.03;;;27.20;33.20
53758;BME280;39674;59.860;30.672;2023-07-16T12:55:52;101133.91;;;27.37;32.29
53758;BME280;39674;59.860;30.672;2023-07-16T12:58:23;101132.34;;;27.43;33.32